createdAt,value
2022-11-16T00:01:58.181Z,96342.77
2022-11-16T00:04:26.689Z,96342.12
2022-11-16T00:06:55.313Z,96343.75
2022-11-16T00:09:23.801Z,96354.39
2022-11-16T00:12:04.989Z,96354.56
2022-11-16T00:14:34.963Z,96360.08
2022-11-16T00:17:04.580Z,96361.39
2022-11-16T00:19:33.026Z,96354.97
2022-11-16T00:22:01.597Z,96357.23
2022-11-16T00:27:26.801Z,96369.13
2022-11-16T00:29:59.797Z,96372.25
2022-11-16T00:32:33.773Z,96365.13
2022-11-16T00:35:02.961Z,96363.67
2022-11-16T00:37:32.541Z,96364.85
2022-11-16T00:40:02.166Z,96370.61
2022-11-16T00:42:34.396Z,96370.21
2022-11-16T00:45:05.066Z,96365.40
2022-11-16T00:47:33.468Z,96359.35
2022-11-16T00:50:02.082Z,96357.33
2022-11-16T00:52:31.947Z,96349.83
2022-11-16T00:55:00.539Z,96346.63
2022-11-16T00:57:29.200Z,96340.52
2022-11-16T01:00:00.048Z,96329.45
2022-11-16T01:02:30.606Z,96327.39
2022-11-16T01:05:13.052Z,96332.52
2022-11-16T01:07:49.839Z,96336.42
2022-11-16T01:10:24.516Z,96327.85
2022-11-16T01:12:53.486Z,96325.58
2022-11-16T01:15:23.501Z,96323.59
2022-11-16T01:17:52.619Z,96315.08
2022-11-16T01:20:22.369Z,96308.29
2022-11-16T01:22:50.983Z,96307.30
2022-11-16T01:25:19.899Z,96306.58
2022-11-16T01:27:48.362Z,96304.20
2022-11-16T01:30:24.211Z,96296.92
2022-11-16T01:33:01.790Z,96285.33
2022-11-16T01:35:30.645Z,96280.89
2022-11-16T01:37:59.957Z,96274.64
2022-11-16T01:40:41.909Z,96262.73
2022-11-16T01:43:16.330Z,96260.46
2022-11-16T01:46:10.352Z,96260.92
2022-11-16T01:48:39.377Z,96259.06
2022-11-16T01:51:11.863Z,96259.81
2022-11-16T01:53:41.183Z,96268.45
2022-11-16T01:56:09.724Z,96263.30
2022-11-16T01:58:47.920Z,96266.82
2022-11-16T02:01:24.025Z,96262.17
2022-11-16T02:03:54.585Z,96258.30
2022-11-16T02:06:38.651Z,96258.73
2022-11-16T02:09:36.961Z,96243.74
2022-11-16T02:12:15.833Z,96249.82
2022-11-16T02:14:44.471Z,96250.43
2022-11-16T02:17:32.875Z,96249.78
2022-11-16T02:20:25.399Z,96241.56
2022-11-16T02:26:01.433Z,96241.61
2022-11-16T02:28:55.086Z,96239.70
2022-11-16T02:31:29.427Z,96233.84
2022-11-16T02:33:59.567Z,96231.80
2022-11-16T02:36:39.083Z,96223.27
2022-11-16T02:42:17.715Z,96211.18
2022-11-16T02:44:48.043Z,96210.00
2022-11-16T02:47:43.033Z,96206.77
2022-11-16T02:50:23.785Z,96197.48
2022-11-16T02:53:11.462Z,96198.59
2022-11-16T02:55:57.848Z,96195.69
2022-11-16T02:58:29.211Z,96190.27
2022-11-16T03:01:11.808Z,96191.38
2022-11-16T03:03:51.150Z,96184.95
2022-11-16T03:06:26.272Z,96186.30
2022-11-16T03:09:01.455Z,96188.15
2022-11-16T03:11:59.973Z,96186.35
2022-11-16T03:14:44.814Z,96192.05
2022-11-16T03:20:32.183Z,96189.28
2022-11-16T03:23:04.607Z,96179.06
2022-11-16T03:26:00.876Z,96183.59
2022-11-16T03:29:18.461Z,96179.53
2022-11-16T03:32:03.633Z,96162.57
2022-11-16T03:34:39.322Z,96147.83
2022-11-16T03:37:08.054Z,96147.98
2022-11-16T03:39:39.103Z,96148.56
2022-11-16T03:42:09.630Z,96139.42
2022-11-16T03:44:38.992Z,96136.89
2022-11-16T03:47:18.077Z,96139.95
2022-11-16T03:49:55.772Z,96138.88
2022-11-16T03:52:25.034Z,96134.67
2022-11-16T03:55:03.009Z,96129.16
2022-11-16T03:57:45.420Z,96124.13
2022-11-16T04:00:18.393Z,96128.84
2022-11-16T04:02:47.026Z,96128.24
2022-11-16T04:05:43.695Z,96128.80
2022-11-16T04:08:45.171Z,96135.05
2022-11-16T04:11:44.593Z,96138.14
2022-11-16T04:14:41.555Z,96122.16
2022-11-16T04:17:44.659Z,96104.20
2022-11-16T04:20:34.988Z,96107.02
2022-11-16T04:23:34.804Z,96118.59
2022-11-16T04:26:06.667Z,96117.41
2022-11-16T04:28:37.070Z,96098.59
2022-11-16T04:31:28.173Z,96092.29
2022-11-16T04:37:38.391Z,96084.92
2022-11-16T04:40:17.990Z,96087.80
2022-11-16T04:43:04.318Z,96081.70
2022-11-16T04:45:56.344Z,96083.07
2022-11-16T04:48:27.469Z,96080.42
2022-11-16T04:50:56.292Z,96085.52
2022-11-16T04:53:27.315Z,96094.21
2022-11-16T04:56:06.861Z,96089.91
2022-11-16T04:58:35.908Z,96089.38
2022-11-16T05:01:05.011Z,96086.70
2022-11-16T05:03:34.748Z,96088.29
2022-11-16T05:06:06.146Z,96094.74
2022-11-16T05:08:45.352Z,96094.02
2022-11-16T05:11:13.692Z,96091.35
2022-11-16T05:13:42.261Z,96095.91
2022-11-16T05:16:11.217Z,96088.23
2022-11-16T05:18:41.279Z,96083.60
2022-11-16T05:21:10.685Z,96083.27
2022-11-16T05:23:57.989Z,96077.77
2022-11-16T05:26:29.521Z,96080.25
2022-11-16T05:28:57.876Z,96081.77
2022-11-16T05:31:26.075Z,96084.65
2022-11-16T05:33:54.252Z,96086.52
2022-11-16T05:36:25.102Z,96084.20
2022-11-16T05:38:56.203Z,96084.46
2022-11-16T05:41:26.088Z,96082.19
2022-11-16T05:43:55.548Z,96074.81
2022-11-16T05:46:24.657Z,96077.82
2022-11-16T05:48:54.014Z,96081.52
2022-11-16T05:51:22.859Z,96087.52
2022-11-16T05:53:51.472Z,96081.15
2022-11-16T05:56:22.348Z,96077.88
2022-11-16T05:58:51.266Z,96070.40
2022-11-16T06:01:19.588Z,96066.83
2022-11-16T06:03:50.606Z,96065.02
2022-11-16T06:06:20.172Z,96058.42
2022-11-16T06:08:51.181Z,96055.71
2022-11-16T06:11:23.026Z,96049.72
2022-11-16T06:13:51.307Z,96046.73
2022-11-16T06:16:28.221Z,96048.84
2022-11-16T06:18:57.856Z,96040.75
2022-11-16T06:21:37.562Z,96048.44
2022-11-16T06:24:12.409Z,96048.15
2022-11-16T06:26:43.057Z,96037.30
2022-11-16T06:29:11.336Z,96036.36
2022-11-16T06:31:39.725Z,96037.70
2022-11-16T06:34:08.623Z,96040.45
2022-11-16T06:36:47.361Z,96037.92
2022-11-16T06:39:23.493Z,96035.89
2022-11-16T06:41:55.190Z,96030.39
2022-11-16T06:44:26.875Z,96027.19
2022-11-16T06:46:58.824Z,96034.65
2022-11-16T06:49:27.153Z,96038.77
2022-11-16T06:51:56.820Z,96032.77
2022-11-16T06:54:25.341Z,96034.63
2022-11-16T06:56:53.728Z,96025.71
2022-11-16T06:59:22.979Z,96023.81
2022-11-16T07:01:51.431Z,96032.70
2022-11-16T07:04:20.988Z,96044.94
2022-11-16T07:06:53.009Z,96051.95
2022-11-16T07:09:21.538Z,96044.36
2022-11-16T07:11:50.876Z,96029.08
2022-11-16T07:14:30.675Z,96034.34
2022-11-16T07:17:06.516Z,96044.37
2022-11-16T07:19:39.184Z,96042.00
2022-11-16T07:22:09.663Z,96032.05
2022-11-16T07:24:46.631Z,96031.23
2022-11-16T07:27:17.363Z,96029.81
2022-11-16T07:29:46.847Z,96031.34
2022-11-16T07:32:45.908Z,96023.46
2022-11-16T07:35:31.247Z,96016.96
2022-11-16T07:37:59.580Z,96012.13
2022-11-16T07:40:30.959Z,96005.31
2022-11-16T07:42:59.511Z,96004.40
2022-11-16T07:45:33.864Z,95997.08
2022-11-16T07:48:06.881Z,96003.62
2022-11-16T07:51:05.075Z,96009.19
2022-11-16T07:53:34.570Z,96009.65
2022-11-16T07:56:03.960Z,96007.89
2022-11-16T07:58:36.090Z,96004.51
2022-11-16T08:01:09.631Z,96006.05
2022-11-16T08:03:38.737Z,96000.75
2022-11-16T08:06:08.562Z,95996.90
2022-11-16T08:08:37.129Z,95985.53
2022-11-16T08:11:07.055Z,95980.70
2022-11-16T08:13:37.115Z,95991.05
2022-11-16T08:16:05.773Z,95984.92
2022-11-16T08:18:34.528Z,95982.16
2022-11-16T08:21:04.209Z,95983.08
2022-11-16T08:23:32.816Z,95986.83
2022-11-16T08:26:02.107Z,95986.44
2022-11-16T08:28:31.231Z,95976.67
2022-11-16T08:31:04.956Z,95979.95
2022-11-16T08:33:33.666Z,95972.84
2022-11-16T08:36:09.570Z,95968.17
2022-11-16T08:38:42.146Z,95965.39
2022-11-16T08:41:11.198Z,95969.83
2022-11-16T08:43:40.613Z,95964.27
2022-11-16T08:46:09.766Z,95958.07
2022-11-16T08:48:41.684Z,95956.48
2022-11-16T08:51:18.478Z,95958.70
2022-11-16T08:53:55.653Z,95963.44
2022-11-16T08:56:27.378Z,95960.15
2022-11-16T08:58:58.989Z,95958.27
2022-11-16T09:01:29.174Z,95954.14
2022-11-16T09:03:57.569Z,95949.30
2022-11-16T09:06:27.047Z,95947.82
2022-11-16T09:08:56.350Z,95951.17
2022-11-16T09:11:25.365Z,95950.86
2022-11-16T09:13:55.154Z,95942.27
2022-11-16T09:16:23.906Z,95943.04
2022-11-16T09:18:53.582Z,95941.53
2022-11-16T09:21:23.291Z,95943.73
2022-11-16T09:23:51.529Z,95942.31
2022-11-16T09:26:21.536Z,95937.20
2022-11-16T09:29:01.014Z,95937.45
2022-11-16T09:31:31.839Z,95944.68
2022-11-16T09:34:00.088Z,95951.52
2022-11-16T09:36:28.980Z,95952.09
2022-11-16T09:42:04.754Z,95938.89
2022-11-16T09:44:51.658Z,95936.47
2022-11-16T09:47:22.021Z,95925.79
2022-11-16T09:49:59.814Z,95929.08
2022-11-16T09:52:34.401Z,95927.63
2022-11-16T09:57:52.472Z,95921.30
2022-11-16T10:00:23.844Z,95922.48
2022-11-16T10:03:04.501Z,95921.95
2022-11-16T10:05:32.844Z,95916.88
2022-11-16T10:08:14.729Z,95918.04
2022-11-16T10:10:49.126Z,95909.93
2022-11-16T10:13:35.847Z,95902.85
2022-11-16T10:16:04.232Z,95898.40
2022-11-16T10:21:55.614Z,95888.55
2022-11-16T10:24:23.747Z,95883.87
2022-11-16T10:26:55.485Z,95876.53
2022-11-16T10:29:39.956Z,95880.33
2022-11-16T10:32:10.813Z,95877.02
2022-11-16T10:34:59.138Z,95864.41
2022-11-16T10:37:36.756Z,95864.77
2022-11-16T10:40:31.340Z,95866.35
2022-11-16T10:42:59.560Z,95872.70
2022-11-16T10:45:39.909Z,95862.64
2022-11-16T10:48:14.863Z,95853.48
2022-11-16T10:50:47.891Z,95845.92
2022-11-16T10:53:26.114Z,95836.09
2022-11-16T10:56:03.061Z,95834.05
2022-11-16T10:58:48.731Z,95836.61
2022-11-16T11:01:27.511Z,95837.59
2022-11-16T11:03:55.897Z,95832.90
2022-11-16T11:06:25.767Z,95833.55
2022-11-16T11:08:53.996Z,95833.02
2022-11-16T11:11:41.942Z,95832.99
2022-11-16T11:14:10.070Z,95827.95
2022-11-16T11:16:38.567Z,95817.60
2022-11-16T12:41:01.164Z,95762.96
2022-11-16T12:43:27.933Z,95761.25
2022-11-16T12:46:07.388Z,95759.33
2022-11-16T12:48:40.605Z,95756.42
2022-11-16T12:51:32.168Z,95750.46
2022-11-16T12:54:02.036Z,95751.10
2022-11-16T12:56:34.939Z,95749.19
2022-11-16T12:59:14.221Z,95745.73
2022-11-16T13:01:47.593Z,95745.35
2022-11-16T13:04:17.479Z,95751.51
2022-11-16T13:07:10.502Z,95750.33
2022-11-16T13:09:49.072Z,95742.33
2022-11-16T13:12:17.650Z,95737.49
2022-11-16T13:14:48.321Z,95734.31
2022-11-16T13:17:23.656Z,95735.16
2022-11-16T13:20:14.568Z,95739.94
2022-11-16T13:22:46.438Z,95738.48
2022-11-16T13:25:45.728Z,95738.11
2022-11-16T13:28:33.722Z,95736.98
2022-11-16T13:31:19.822Z,95734.56
2022-11-16T13:33:51.284Z,95734.31
2022-11-16T13:36:36.717Z,95734.23
2022-11-16T13:39:04.546Z,95731.52
2022-11-16T13:41:35.794Z,95731.25
2022-11-16T13:44:03.891Z,95724.69
2022-11-16T13:46:56.282Z,95720.50
2022-11-16T13:49:30.294Z,95723.29
2022-11-16T13:52:21.455Z,95715.59
2022-11-16T13:54:51.503Z,95712.82
2022-11-16T13:57:32.247Z,95710.64
2022-11-16T14:00:02.245Z,95710.88
2022-11-16T14:02:33.119Z,95712.70
2022-11-16T14:05:12.232Z,95713.55
2022-11-16T14:07:42.579Z,95717.48
2022-11-16T14:10:10.602Z,95710.52
2022-11-16T14:12:37.576Z,95707.26
2022-11-16T14:15:04.481Z,95705.81
2022-11-16T14:17:57.785Z,95706.05
2022-11-16T14:20:24.642Z,95708.59
2022-11-16T14:22:51.522Z,95706.67
2022-11-16T14:25:37.250Z,95707.88
2022-11-16T14:28:30.264Z,95705.89
2022-11-16T14:31:13.156Z,95703.70
2022-11-16T14:33:40.091Z,95697.48
2022-11-16T14:36:07.852Z,95695.88
2022-11-16T14:38:36.355Z,95694.96
2022-11-16T14:41:04.888Z,95692.91
2022-11-16T14:43:45.607Z,95698.55
2022-11-16T14:46:19.810Z,95692.85
2022-11-16T14:48:46.913Z,95688.34
2022-11-16T14:51:15.985Z,95688.35
2022-11-16T14:53:48.234Z,95690.16
2022-11-16T14:56:16.004Z,95685.75
2022-11-16T14:58:53.279Z,95684.34
2022-11-16T15:01:22.169Z,95677.30
2022-11-16T15:04:23.620Z,95676.41
2022-11-16T15:06:57.521Z,95680.59
2022-11-16T15:09:24.330Z,95681.63
2022-11-16T15:12:10.061Z,95679.40
2022-11-16T15:14:40.046Z,95675.48
2022-11-16T15:17:08.000Z,95672.43
2022-11-16T15:19:35.061Z,95670.98
2022-11-16T15:22:02.766Z,95674.71
2022-11-16T15:24:32.217Z,95673.19
2022-11-16T15:27:07.961Z,95673.20
2022-11-16T15:29:34.996Z,95671.58
2022-11-16T15:32:01.713Z,95668.13
2022-11-16T15:34:28.590Z,95666.77
2022-11-16T15:36:55.361Z,95669.55
2022-11-16T15:39:23.219Z,95657.77
2022-11-16T15:41:50.972Z,95657.41
2022-11-16T15:44:20.130Z,95657.33
2022-11-16T15:46:48.659Z,95657.19
2022-11-16T15:49:25.917Z,95663.08
2022-11-16T15:51:52.800Z,95663.79
2022-11-16T15:54:24.463Z,95660.08
2022-11-16T15:56:53.234Z,95657.28
2022-11-16T15:59:24.511Z,95648.19
2022-11-16T16:01:51.765Z,95645.44
2022-11-16T16:04:18.704Z,95646.30
2022-11-16T16:06:48.836Z,95644.33
2022-11-16T16:09:36.400Z,95637.56
2022-11-16T16:12:17.499Z,95634.34
2022-11-16T16:14:44.815Z,95631.35
2022-11-16T16:17:20.662Z,95628.10
2022-11-16T16:19:53.675Z,95629.38
2022-11-16T16:22:25.773Z,95625.64
2022-11-16T16:24:53.151Z,95620.11
2022-11-16T16:27:21.434Z,95609.48
2022-11-16T16:29:49.585Z,95604.98
2022-11-16T16:32:29.818Z,95600.08
2022-11-16T16:34:57.763Z,95597.86
2022-11-16T16:37:25.509Z,95598.40
2022-11-16T16:39:52.264Z,95602.90
2022-11-16T16:42:19.789Z,95606.68
2022-11-16T16:44:47.522Z,95609.44
2022-11-16T16:47:14.883Z,95610.45
2022-11-16T16:49:41.637Z,95609.29
2022-11-16T16:52:11.147Z,95604.31
2022-11-16T16:54:38.061Z,95588.33
2022-11-16T16:57:04.934Z,95584.20
2022-11-16T16:59:31.977Z,95588.56
2022-11-16T17:02:03.863Z,95583.16
2022-11-16T17:05:35.849Z,95578.98
2022-11-16T17:08:02.598Z,95570.08
2022-11-16T17:10:29.468Z,95569.70
2022-11-16T17:12:56.716Z,95579.07
2022-11-16T17:15:24.123Z,95584.01
2022-11-16T17:17:50.940Z,95590.44
2022-11-16T17:20:17.765Z,95590.99
2022-11-16T17:22:45.467Z,95590.92
2022-11-16T17:25:12.682Z,95587.88
2022-11-16T17:27:39.506Z,95590.30
2022-11-16T17:30:06.784Z,95597.91
2022-11-16T17:32:33.620Z,95591.93
2022-11-16T17:35:00.379Z,95585.52
2022-11-16T17:37:27.180Z,95583.51
2022-11-16T17:39:53.901Z,95585.73
2022-11-16T17:42:20.729Z,95590.02
2022-11-16T17:44:47.626Z,95584.16
2022-11-16T17:47:14.400Z,95575.02
2022-11-16T17:49:41.213Z,95573.39
2022-11-16T17:52:07.966Z,95569.56
2022-11-16T17:54:34.767Z,95565.77
2022-11-16T17:57:01.558Z,95565.96
2022-11-16T17:59:30.033Z,95564.55
2022-11-16T18:01:57.390Z,95563.91
2022-11-16T18:04:24.347Z,95567.17
2022-11-16T18:06:51.445Z,95562.81
2022-11-16T18:09:18.437Z,95554.18
2022-11-16T18:11:45.291Z,95550.61
2022-11-16T18:14:12.057Z,95547.76
2022-11-16T18:16:41.772Z,95546.02
2022-11-16T18:19:09.305Z,95550.52
2022-11-16T18:21:39.895Z,95549.77
2022-11-16T18:24:06.837Z,95550.32
2022-11-16T18:26:33.774Z,95551.30
2022-11-16T18:29:00.691Z,95550.96
2022-11-16T18:31:29.202Z,95542.58
2022-11-16T18:33:56.093Z,95543.33
2022-11-16T18:36:22.982Z,95540.39
2022-11-16T18:38:49.855Z,95534.05
2022-11-16T18:41:16.655Z,95530.04
2022-11-16T18:43:54.297Z,95532.23
2022-11-16T18:46:22.475Z,95535.84
2022-11-16T18:48:49.229Z,95528.34
2022-11-16T18:51:21.333Z,95524.27
2022-11-16T18:53:48.257Z,95518.21
2022-11-16T18:56:15.350Z,95514.23
2022-11-16T18:58:50.830Z,95513.74
2022-11-16T19:01:19.919Z,95522.04
2022-11-16T19:03:46.729Z,95527.70
2022-11-16T19:06:18.580Z,95528.04
2022-11-16T19:08:51.824Z,95523.89
2022-11-16T19:11:22.789Z,95526.14
2022-11-16T19:13:51.894Z,95532.94
2022-11-16T19:16:18.903Z,95529.23
2022-11-16T19:18:46.084Z,95523.35
2022-11-16T19:21:14.167Z,95526.26
2022-11-16T19:23:42.806Z,95526.77
2022-11-16T19:26:24.940Z,95529.38
2022-11-16T19:28:57.246Z,95528.31
2022-11-16T19:31:35.564Z,95525.17
2022-11-16T19:34:04.451Z,95522.46
2022-11-16T19:36:32.541Z,95521.11
2022-11-16T19:39:01.102Z,95525.82
2022-11-16T19:41:28.595Z,95527.58
2022-11-16T19:43:59.158Z,95524.30
2022-11-16T19:46:27.609Z,95517.69
2022-11-16T19:48:55.364Z,95506.95
2022-11-16T19:51:23.780Z,95507.73
2022-11-16T19:53:50.874Z,95509.36
2022-11-16T19:56:19.593Z,95512.57
2022-11-16T19:58:47.126Z,95514.45
2022-11-16T20:01:16.532Z,95501.04
2022-11-16T20:03:44.322Z,95491.46
2022-11-16T20:06:13.198Z,95486.55
2022-11-16T20:08:40.940Z,95487.55
2022-11-16T20:11:15.597Z,95483.77
2022-11-16T20:13:43.278Z,95484.13
2022-11-16T20:16:11.293Z,95482.77
2022-11-16T20:18:39.313Z,95480.08
2022-11-16T20:21:07.858Z,95477.77
2022-11-16T20:23:35.274Z,95471.51
2022-11-16T20:26:03.317Z,95472.29
2022-11-16T20:28:33.105Z,95468.61
2022-11-16T20:31:00.708Z,95470.52
2022-11-16T20:33:27.480Z,95464.02
2022-11-16T20:35:58.994Z,95465.80
2022-11-16T20:38:25.835Z,95461.66
2022-11-16T20:40:52.629Z,95459.55
2022-11-16T20:43:19.545Z,95454.13
2022-11-16T20:45:50.968Z,95450.73
2022-11-16T20:48:17.725Z,95450.23
2022-11-16T20:50:45.112Z,95450.47
2022-11-16T20:53:12.027Z,95446.91
2022-11-16T20:55:38.933Z,95441.33
2022-11-16T20:58:05.790Z,95439.30
2022-11-16T21:00:32.710Z,95439.90
2022-11-16T21:02:59.692Z,95431.88
2022-11-16T21:05:26.623Z,95428.95
2022-11-16T21:07:53.418Z,95427.76
2022-11-16T21:10:20.373Z,95423.88
2022-11-16T21:13:05.974Z,95423.11
2022-11-16T21:15:33.030Z,95419.21
2022-11-16T21:17:59.802Z,95418.95
2022-11-16T21:20:28.083Z,95415.95
2022-11-16T21:22:55.572Z,95416.36
2022-11-16T21:25:22.439Z,95415.56
2022-11-16T21:27:49.308Z,95414.05
2022-11-16T21:30:16.334Z,95412.99
2022-11-16T21:32:43.339Z,95412.20
2022-11-16T21:35:10.127Z,95410.80
2022-11-16T21:37:36.924Z,95411.93
2022-11-16T21:40:03.740Z,95407.01
2022-11-16T21:42:30.542Z,95400.88
2022-11-16T21:44:57.300Z,95400.41
2022-11-16T21:47:24.153Z,95397.52
2022-11-16T21:50:16.978Z,95391.45
2022-11-16T21:52:37.824Z,95388.98
2022-11-16T21:55:04.855Z,95391.90
2022-11-16T21:57:31.730Z,95385.35
2022-11-16T22:00:00.432Z,95384.15
2022-11-16T22:02:27.414Z,95378.66
2022-11-16T22:05:12.909Z,95381.97
2022-11-16T22:07:40.623Z,95376.90
2022-11-16T22:10:11.454Z,95374.73
2022-11-16T22:12:38.705Z,95371.77
2022-11-16T22:15:06.251Z,95369.70
2022-11-16T22:17:33.034Z,95361.95
2022-11-16T22:19:59.703Z,95359.55
2022-11-16T22:22:26.501Z,95356.98
2022-11-16T22:24:53.357Z,95360.77
2022-11-16T22:27:20.311Z,95356.80
2022-11-16T22:29:47.150Z,95352.52
2022-11-16T22:32:13.926Z,95354.85
2022-11-16T22:34:45.194Z,95352.13
2022-11-16T22:37:11.988Z,95341.20
2022-11-16T22:39:38.799Z,95339.79
2022-11-16T22:42:05.795Z,95340.77
2022-11-16T22:44:32.536Z,95338.68
2022-11-16T22:47:01.082Z,95338.50
2022-11-16T22:49:27.946Z,95329.88
2022-11-16T22:51:54.907Z,95333.44
2022-11-16T22:54:27.353Z,95329.77
2022-11-16T22:56:55.450Z,95327.51
2022-11-16T22:59:22.379Z,95323.30
2022-11-16T23:01:49.148Z,95322.20
2022-11-16T23:04:15.883Z,95320.72
2022-11-16T23:06:42.550Z,95320.12
2022-11-16T23:09:09.307Z,95320.17
2022-11-16T23:11:54.746Z,95319.45
2022-11-16T23:14:40.283Z,95312.14
2022-11-16T23:17:07.144Z,95310.68
2022-11-16T23:19:52.701Z,95304.45
2022-11-16T23:22:39.413Z,95298.16
2022-11-16T23:25:25.862Z,95301.77
2022-11-16T23:27:56.261Z,95303.83
2022-11-16T23:30:23.722Z,95302.74
2022-11-16T23:32:50.955Z,95300.52
2022-11-16T23:35:17.892Z,95298.69
2022-11-16T23:37:51.051Z,95292.73
2022-11-16T23:40:18.073Z,95291.23
2022-11-16T23:43:03.758Z,95287.55
2022-11-16T23:45:30.672Z,95280.86
2022-11-16T23:47:57.379Z,95280.33
2022-11-16T23:50:24.114Z,95275.59
2022-11-16T23:52:50.883Z,95276.89
2022-11-16T23:55:17.821Z,95280.91
2022-11-16T23:57:44.760Z,95282.94
